Quanzhou, China
Current Conditions -  °F | °C
As of 7:00 AM on Tuesday 21 Oct 2014 (Local Time) from ZSAM Reporting Station
Haze Haze  
Wind Chill: 75°   Ceiling: Unl
Heat Index: 75°   Visibility: 1.8mi
Dew Point: 73°   Wind: 2mph
Humidity: 94%   Direction: NA
Pressure: 30"   Gusts: NA
Location:  24.9°N, 118.58°E
Report Text: ZSAM 202300Z VRB01MPS 3000 BR NSC 24/23 Q1016 NOSIG
Loading
Personal Weather Stations






























Interactive Weather Map
Tropical Storm Tracking
New forecast layout! Learn more

10-Day Weather Forecast

Advertisements
Track Severe Weather on mobile